sensor_id;sensor_type;location;lat;lon;timestamp;pressure;altitude;pressure_sealevel;temperature;humidity
49529;BME280;35423;37.320;-121.762;2023-08-08T00:02:29;99625.96;;;51.00;5.91
49529;BME280;35423;37.320;-121.762;2023-08-08T00:04:58;99622.14;;;50.79;5.97
49529;BME280;35423;37.320;-121.762;2023-08-08T00:07:32;99621.73;;;50.88;6.02
49529;BME280;35423;37.320;-121.762;2023-08-08T00:09:58;99620.56;;;50.47;6.10
49529;BME280;35423;37.320;-121.762;2023-08-08T00:12:28;99621.58;;;50.32;6.15
49529;BME280;35423;37.320;-121.762;2023-08-08T00:14:54;99624.65;;;50.47;6.24
49529;BME280;35423;37.320;-121.762;2023-08-08T00:17:21;99626.60;;;50.10;6.26
49529;BME280;35423;37.320;-121.762;2023-08-08T00:19:52;99621.93;;;50.24;6.29
49529;BME280;35423;37.320;-121.762;2023-08-08T00:22:18;99621.16;;;50.10;6.35
49529;BME280;35423;37.320;-121.762;2023-08-08T00:24:44;99618.02;;;50.25;6.45
49529;BME280;35423;37.320;-121.762;2023-08-08T00:27:10;99615.89;;;50.16;6.48
49529;BME280;35423;37.320;-121.762;2023-08-08T00:29:35;99614.79;;;50.13;6.43
49529;BME280;35423;37.320;-121.762;2023-08-08T02:06:33;99643.34;;;45.68;8.65
49529;BME280;35423;37.320;-121.762;2023-08-08T02:08:51;99647.16;;;45.93;8.69
49529;BME280;35423;37.320;-121.762;2023-08-08T02:11:17;99648.16;;;45.60;8.75
49529;BME280;35423;37.320;-121.762;2023-08-08T02:13:52;99653.27;;;45.63;8.81
49529;BME280;35423;37.320;-121.762;2023-08-08T02:16:11;99650.39;;;45.22;8.87
49529;BME280;35423;37.320;-121.762;2023-08-08T02:18:36;99652.05;;;45.31;8.93
49529;BME280;35423;37.320;-121.762;2023-08-08T02:21:07;99655.26;;;45.47;9.01
49529;BME280;35423;37.320;-121.762;2023-08-08T02:23:35;99656.83;;;45.36;9.03
49529;BME280;35423;37.320;-121.762;2023-08-08T02:26:01;99658.90;;;44.89;9.12
49529;BME280;35423;37.320;-121.762;2023-08-08T02:28:26;99659.80;;;44.69;9.20
49529;BME280;35423;37.320;-121.762;2023-08-08T02:30:53;99661.95;;;44.47;9.29
49529;BME280;35423;37.320;-121.762;2023-08-08T02:33:18;99661.00;;;44.73;9.42
49529;BME280;35423;37.320;-121.762;2023-08-08T02:35:44;99663.62;;;44.53;9.50
49529;BME280;35423;37.320;-121.762;2023-08-08T02:38:09;99663.70;;;44.27;9.59
49529;BME280;35423;37.320;-121.762;2023-08-08T02:40:36;99662.63;;;44.36;9.67
49529;BME280;35423;37.320;-121.762;2023-08-08T02:43:02;99660.26;;;43.90;9.76
49529;BME280;35423;37.320;-121.762;2023-08-08T02:45:27;99661.37;;;43.74;9.84
49529;BME280;35423;37.320;-121.762;2023-08-08T02:47:53;99662.52;;;43.52;9.96
49529;BME280;35423;37.320;-121.762;2023-08-08T02:50:19;99662.04;;;43.67;10.03
49529;BME280;35423;37.320;-121.762;2023-08-08T02:52:46;99663.94;;;43.13;10.16
49529;BME280;35423;37.320;-121.762;2023-08-08T02:55:12;99665.57;;;43.20;10.26
49529;BME280;35423;37.320;-121.762;2023-08-08T02:57:37;99670.36;;;43.20;10.36
49529;BME280;35423;37.320;-121.762;2023-08-08T03:00:09;99672.23;;;42.75;10.42
49529;BME280;35423;37.320;-121.762;2023-08-08T03:02:39;99672.24;;;42.74;10.48
49529;BME280;35423;37.320;-121.762;2023-08-08T03:05:07;99674.11;;;42.51;10.63
49529;BME280;35423;37.320;-121.762;2023-08-08T03:07:33;99677.06;;;42.07;10.80
49529;BME280;35423;37.320;-121.762;2023-08-08T03:10:00;99681.02;;;42.34;11.01
49529;BME280;35423;37.320;-121.762;2023-08-08T03:12:38;99680.32;;;42.08;11.10
49529;BME280;35423;37.320;-121.762;2023-08-08T03:15:04;99683.40;;;41.90;11.30
49529;BME280;35423;37.320;-121.762;2023-08-08T03:17:36;99684.84;;;41.67;11.48
49529;BME280;35423;37.320;-121.762;2023-08-08T03:19:53;99689.65;;;41.73;11.71
49529;BME280;35423;37.320;-121.762;2023-08-08T03:22:18;99691.82;;;41.46;11.87
49529;BME280;35423;37.320;-121.762;2023-08-08T03:24:44;99696.84;;;41.45;12.06
49529;BME280;35423;37.320;-121.762;2023-08-08T03:27:10;99700.63;;;41.01;12.17
49529;BME280;35423;37.320;-121.762;2023-08-08T03:29:36;99704.79;;;41.04;12.29
49529;BME280;35423;37.320;-121.762;2023-08-08T03:32:03;99707.38;;;40.62;12.44
49529;BME280;35423;37.320;-121.762;2023-08-08T03:34:35;99712.31;;;40.47;12.53
49529;BME280;35423;37.320;-121.762;2023-08-08T03:37:01;99715.93;;;40.80;12.62
49529;BME280;35423;37.320;-121.762;2023-08-08T03:39:28;99718.87;;;40.41;12.62
49529;BME280;35423;37.320;-121.762;2023-08-08T03:41:55;99722.17;;;40.50;12.77
49529;BME280;35423;37.320;-121.762;2023-08-08T03:44:23;99724.91;;;40.36;12.85
49529;BME280;35423;37.320;-121.762;2023-08-08T03:46:48;99724.26;;;40.22;12.89
49529;BME280;35423;37.320;-121.762;2023-08-08T03:49:20;99725.83;;;40.09;12.95
49529;BME280;35423;37.320;-121.762;2023-08-08T03:51:43;99729.12;;;40.42;12.97
49529;BME280;35423;37.320;-121.762;2023-08-08T03:54:09;99732.20;;;39.77;13.03
49529;BME280;35423;37.320;-121.762;2023-08-08T03:56:34;99732.37;;;39.60;13.12
49529;BME280;35423;37.320;-121.762;2023-08-08T03:59:01;99733.85;;;39.41;13.15
49529;BME280;35423;37.320;-121.762;2023-08-08T04:01:28;99733.61;;;39.68;13.23
49529;BME280;35423;37.320;-121.762;2023-08-08T04:04:01;99733.49;;;39.59;13.27
49529;BME280;35423;37.320;-121.762;2023-08-08T04:06:28;99735.79;;;39.58;13.25
49529;BME280;35423;37.320;-121.762;2023-08-08T04:09:02;99737.27;;;39.14;13.33
49529;BME280;35423;37.320;-121.762;2023-08-08T04:11:28;99737.34;;;39.17;13.39
49529;BME280;35423;37.320;-121.762;2023-08-08T04:13:56;99740.93;;;39.21;13.49
49529;BME280;35423;37.320;-121.762;2023-08-08T04:16:21;99743.74;;;38.78;13.58
49529;BME280;35423;37.320;-121.762;2023-08-08T04:18:48;99747.13;;;38.69;13.61
49529;BME280;35423;37.320;-121.762;2023-08-08T04:21:15;99745.86;;;38.59;13.64
49529;BME280;35423;37.320;-121.762;2023-08-08T04:23:44;99747.52;;;38.49;13.67
49529;BME280;35423;37.320;-121.762;2023-08-08T04:26:12;99747.39;;;38.66;13.73
49529;BME280;35423;37.320;-121.762;2023-08-08T04:28:38;99750.77;;;38.30;13.79
49529;BME280;35423;37.320;-121.762;2023-08-08T04:31:11;99752.84;;;38.69;13.82
49529;BME280;35423;37.320;-121.762;2023-08-08T04:33:37;99750.52;;;38.61;13.85
49529;BME280;35423;37.320;-121.762;2023-08-08T04:36:06;99753.51;;;38.53;13.89
49529;BME280;35423;37.320;-121.762;2023-08-08T04:38:31;99756.35;;;38.17;14.01
49529;BME280;35423;37.320;-121.762;2023-08-08T04:40:59;99754.92;;;38.04;14.06
49529;BME280;35423;37.320;-121.762;2023-08-08T04:43:28;99757.43;;;37.92;14.09
49529;BME280;35423;37.320;-121.762;2023-08-08T04:45:59;99754.07;;;38.07;14.11
49529;BME280;35423;37.320;-121.762;2023-08-08T04:48:25;99757.64;;;37.70;14.18
49529;BME280;35423;37.320;-121.762;2023-08-08T04:50:52;99759.14;;;37.61;14.23
49529;BME280;35423;37.320;-121.762;2023-08-08T04:53:18;99758.20;;;37.72;14.30
49529;BME280;35423;37.320;-121.762;2023-08-08T04:55:43;99757.81;;;37.62;14.39
49529;BME280;35423;37.320;-121.762;2023-08-08T04:58:09;99760.68;;;37.52;14.47
49529;BME280;35423;37.320;-121.762;2023-08-08T05:00:36;99763.01;;;37.43;14.49
49529;BME280;35423;37.320;-121.762;2023-08-08T05:03:09;99765.87;;;37.28;14.56
49529;BME280;35423;37.320;-121.762;2023-08-08T05:05:33;99769.16;;;37.21;14.59
49529;BME280;35423;37.320;-121.762;2023-08-08T05:08:02;99769.55;;;37.31;14.62
49529;BME280;35423;37.320;-121.762;2023-08-08T05:10:28;99771.28;;;37.50;14.68
49529;BME280;35423;37.320;-121.762;2023-08-08T05:12:59;99771.49;;;37.13;14.74
49529;BME280;35423;37.320;-121.762;2023-08-08T05:15:28;99774.51;;;37.31;14.79
49529;BME280;35423;37.320;-121.762;2023-08-08T05:17:58;99776.54;;;36.86;14.86
49529;BME280;35423;37.320;-121.762;2023-08-08T05:20:25;99775.80;;;37.01;14.93
49529;BME280;35423;37.320;-121.762;2023-08-08T05:23:04;99775.87;;;36.34;15.06
49529;BME280;35423;37.320;-121.762;2023-08-08T05:25:31;99781.16;;;35.49;15.03
49529;BME280;35423;37.320;-121.762;2023-08-08T05:27:58;99779.87;;;36.94;14.69
49529;BME280;35423;37.320;-121.762;2023-08-08T05:30:24;99779.30;;;37.09;14.81
49529;BME280;35423;37.320;-121.762;2023-08-08T05:32:55;99783.19;;;36.76;14.93
49529;BME280;35423;37.320;-121.762;2023-08-08T05:35:21;99782.82;;;36.55;15.01
49529;BME280;35423;37.320;-121.762;2023-08-08T05:38:00;99782.19;;;36.51;15.14
49529;BME280;35423;37.320;-121.762;2023-08-08T05:40:28;99782.21;;;36.13;15.22
49529;BME280;35423;37.320;-121.762;2023-08-08T05:43:00;99781.36;;;36.44;15.32
49529;BME280;35423;37.320;-121.762;2023-08-08T05:45:26;99786.05;;;36.05;15.38
49529;BME280;35423;37.320;-121.762;2023-08-08T05:47:59;99789.19;;;35.67;15.43
49529;BME280;35423;37.320;-121.762;2023-08-08T05:50:27;99788.23;;;35.83;15.45
49529;BME280;35423;37.320;-121.762;2023-08-08T05:52:56;99786.20;;;35.70;15.55
49529;BME280;35423;37.320;-121.762;2023-08-08T05:55:21;99785.26;;;35.60;15.65
49529;BME280;35423;37.320;-121.762;2023-08-08T05:58:04;99783.18;;;35.41;15.69
49529;BME280;35423;37.320;-121.762;2023-08-08T06:00:31;99780.79;;;35.58;15.73
49529;BME280;35423;37.320;-121.762;2023-08-08T06:03:00;99782.09;;;35.19;15.76
49529;BME280;35423;37.320;-121.762;2023-08-08T06:05:26;99783.25;;;35.35;15.81
49529;BME280;35423;37.320;-121.762;2023-08-08T06:07:56;99785.27;;;35.23;15.92
49529;BME280;35423;37.320;-121.762;2023-08-08T06:10:21;99779.81;;;35.14;15.94
49529;BME280;35423;37.320;-121.762;2023-08-08T06:12:57;99780.40;;;34.95;16.10
49529;BME280;35423;37.320;-121.762;2023-08-08T06:15:23;99779.77;;;34.79;16.25
49529;BME280;35423;37.320;-121.762;2023-08-08T06:18:02;99780.50;;;34.87;16.33
49529;BME280;35423;37.320;-121.762;2023-08-08T06:20:28;99778.24;;;35.01;16.24
49529;BME280;35423;37.320;-121.762;2023-08-08T06:22:57;99777.23;;;34.63;16.35
49529;BME280;35423;37.320;-121.762;2023-08-08T06:25:21;99773.72;;;34.74;16.38
49529;BME280;35423;37.320;-121.762;2023-08-08T06:27:58;99772.33;;;34.30;16.47
49529;BME280;35423;37.320;-121.762;2023-08-08T06:30:24;99770.98;;;34.38;16.57
49529;BME280;35423;37.320;-121.762;2023-08-08T06:33:01;99772.76;;;34.21;16.69
49529;BME280;35423;37.320;-121.762;2023-08-08T06:35:26;99772.00;;;34.12;16.73
49529;BME280;35423;37.320;-121.762;2023-08-08T06:38:04;99774.84;;;34.01;16.82
49529;BME280;35423;37.320;-121.762;2023-08-08T06:40:31;99774.60;;;33.93;16.83
49529;BME280;35423;37.320;-121.762;2023-08-08T06:43:02;99779.31;;;33.82;16.86
49529;BME280;35423;37.320;-121.762;2023-08-08T06:45:28;99777.53;;;34.03;16.85
49529;BME280;35423;37.320;-121.762;2023-08-08T06:47:53;99777.06;;;33.88;16.91
49529;BME280;35423;37.320;-121.762;2023-08-08T06:50:21;99778.58;;;34.00;16.94
49529;BME280;35423;37.320;-121.762;2023-08-08T06:52:55;99777.58;;;33.86;17.04
49529;BME280;35423;37.320;-121.762;2023-08-08T06:55:20;99774.42;;;33.78;17.06
49529;BME280;35423;37.320;-121.762;2023-08-08T06:58:00;99772.48;;;33.69;17.14
49529;BME280;35423;37.320;-121.762;2023-08-08T07:00:25;99770.40;;;33.59;17.23
49529;BME280;35423;37.320;-121.762;2023-08-08T07:03:07;99768.86;;;33.01;17.28
49529;BME280;35423;37.320;-121.762;2023-08-08T07:05:32;99771.15;;;33.20;17.31
49529;BME280;35423;37.320;-121.762;2023-08-08T07:07:57;99773.50;;;33.28;17.39
49529;BME280;35423;37.320;-121.762;2023-08-08T07:10:23;99774.59;;;33.12;17.53
49529;BME280;35423;37.320;-121.762;2023-08-08T07:13:05;99778.91;;;32.46;17.58
49529;BME280;35423;37.320;-121.762;2023-08-08T07:15:32;99776.42;;;33.38;17.57
49529;BME280;35423;37.320;-121.762;2023-08-08T07:18:05;99777.68;;;32.75;17.59
49529;BME280;35423;37.320;-121.762;2023-08-08T07:20:30;99775.81;;;32.89;17.72
49529;BME280;35423;37.320;-121.762;2023-08-08T07:22:56;99778.35;;;32.50;17.85
49529;BME280;35423;37.320;-121.762;2023-08-08T07:25:24;99777.04;;;32.66;17.85
49529;BME280;35423;37.320;-121.762;2023-08-08T07:27:52;99777.70;;;32.78;17.94
49529;BME280;35423;37.320;-121.762;2023-08-08T07:30:19;99775.16;;;32.62;18.03
49529;BME280;35423;37.320;-121.762;2023-08-08T07:32:50;99772.77;;;32.23;18.14
49529;BME280;35423;37.320;-121.762;2023-08-08T07:35:16;99773.54;;;32.51;18.17
49529;BME280;35423;37.320;-121.762;2023-08-08T07:37:59;99774.64;;;31.94;18.21
49529;BME280;35423;37.320;-121.762;2023-08-08T07:40:28;99774.51;;;32.34;18.26
49529;BME280;35423;37.320;-121.762;2023-08-08T07:42:58;99774.77;;;31.92;18.36
49529;BME280;35423;37.320;-121.762;2023-08-08T07:45:27;99773.80;;;32.13;18.49
49529;BME280;35423;37.320;-121.762;2023-08-08T07:48:00;99768.32;;;31.70;18.57
49529;BME280;35423;37.320;-121.762;2023-08-08T07:50:27;99767.79;;;31.87;18.61
49529;BME280;35423;37.320;-121.762;2023-08-08T07:52:57;99767.18;;;31.69;18.70
49529;BME280;35423;37.320;-121.762;2023-08-08T07:55:21;99767.04;;;31.65;18.68
49529;BME280;35423;37.320;-121.762;2023-08-08T07:58:05;99769.70;;;31.55;18.74
49529;BME280;35423;37.320;-121.762;2023-08-08T08:00:32;99771.90;;;31.53;18.74
49529;BME280;35423;37.320;-121.762;2023-08-08T08:03:02;99770.49;;;31.43;18.87
49529;BME280;35423;37.320;-121.762;2023-08-08T08:05:28;99768.80;;;31.59;18.88
49529;BME280;35423;37.320;-121.762;2023-08-08T08:08:01;99768.11;;;30.98;18.91
49529;BME280;35423;37.320;-121.762;2023-08-08T08:10:28;99771.45;;;31.67;18.92
49529;BME280;35423;37.320;-121.762;2023-08-08T08:13:00;99774.86;;;31.26;18.97
49529;BME280;35423;37.320;-121.762;2023-08-08T08:15:29;99774.75;;;31.45;19.03
49529;BME280;35423;37.320;-121.762;2023-08-08T08:18:02;99775.64;;;30.83;19.15
49529;BME280;35423;37.320;-121.762;2023-08-08T08:20:28;99775.45;;;31.00;19.15
49529;BME280;35423;37.320;-121.762;2023-08-08T08:22:59;99778.83;;;30.93;19.21
49529;BME280;35423;37.320;-121.762;2023-08-08T08:25:31;99781.74;;;31.14;19.24
49529;BME280;35423;37.320;-121.762;2023-08-08T08:28:11;99783.17;;;30.51;19.34
49529;BME280;35423;37.320;-121.762;2023-08-08T08:30:36;99784.10;;;30.92;19.35
49529;BME280;35423;37.320;-121.762;2023-08-08T08:33:07;99782.40;;;30.51;19.44
49529;BME280;35423;37.320;-121.762;2023-08-08T08:35:32;99783.64;;;30.70;19.48
49529;BME280;35423;37.320;-121.762;2023-08-08T08:37:59;99783.26;;;30.53;19.58
49529;BME280;35423;37.320;-121.762;2023-08-08T08:40:25;99785.88;;;30.92;19.61
49529;BME280;35423;37.320;-121.762;2023-08-08T08:43:01;99789.16;;;30.16;19.63
49529;BME280;35423;37.320;-121.762;2023-08-08T08:45:21;99787.72;;;30.40;19.61
49529;BME280;35423;37.320;-121.762;2023-08-08T08:47:54;99785.58;;;29.94;19.76
49529;BME280;35423;37.320;-121.762;2023-08-08T08:50:16;99783.80;;;30.23;19.70
49529;BME280;35423;37.320;-121.762;2023-08-08T08:52:48;99782.65;;;30.02;19.86
49529;BME280;35423;37.320;-121.762;2023-08-08T08:55:12;99780.18;;;30.43;19.90
49529;BME280;35423;37.320;-121.762;2023-08-08T08:57:49;99779.81;;;29.79;19.97
49529;BME280;35423;37.320;-121.762;2023-08-08T09:00:19;99777.45;;;30.28;19.95
49529;BME280;35423;37.320;-121.762;2023-08-08T09:02:51;99775.01;;;29.37;20.12
49529;BME280;35423;37.320;-121.762;2023-08-08T09:05:19;99777.12;;;30.03;20.24
49529;BME280;35423;37.320;-121.762;2023-08-08T09:07:50;99777.09;;;29.30;20.50
49529;BME280;35423;37.320;-121.762;2023-08-08T09:10:18;99773.57;;;29.57;20.60
49529;BME280;35423;37.320;-121.762;2023-08-08T09:12:46;99769.67;;;29.37;20.56
49529;BME280;35423;37.320;-121.762;2023-08-08T09:15:11;99768.95;;;29.59;20.55
49529;BME280;35423;37.320;-121.762;2023-08-08T09:20:03;99767.79;;;29.57;20.77
49529;BME280;35423;37.320;-121.762;2023-08-08T09:22:28;99766.42;;;29.17;20.88
49529;BME280;35423;37.320;-121.762;2023-08-08T09:24:59;99764.65;;;29.15;20.88
49529;BME280;35423;37.320;-121.762;2023-08-08T09:27:29;99762.78;;;29.24;20.96
49529;BME280;35423;37.320;-121.762;2023-08-08T09:29:53;99761.30;;;29.23;21.00
49529;BME280;35423;37.320;-121.762;2023-08-08T09:32:19;99759.52;;;29.10;21.15
49529;BME280;35423;37.320;-121.762;2023-08-08T09:34:47;99760.07;;;28.88;21.19
49529;BME280;35423;37.320;-121.762;2023-08-08T09:37:12;99761.82;;;28.99;21.28
49529;BME280;35423;37.320;-121.762;2023-08-08T09:39:43;99759.13;;;28.79;21.26
49529;BME280;35423;37.320;-121.762;2023-08-08T09:42:15;99753.94;;;28.89;21.38
49529;BME280;35423;37.320;-121.762;2023-08-08T09:44:44;99754.44;;;28.91;21.30
49529;BME280;35423;37.320;-121.762;2023-08-08T09:47:14;99755.58;;;28.81;21.33
49529;BME280;35423;37.320;-121.762;2023-08-08T09:49:37;99755.73;;;28.81;21.32
49529;BME280;35423;37.320;-121.762;2023-08-08T09:52:05;99755.94;;;28.70;21.37
49529;BME280;35423;37.320;-121.762;2023-08-08T09:54:32;99755.88;;;28.68;21.40
49529;BME280;35423;37.320;-121.762;2023-08-08T09:56:59;99756.01;;;28.77;21.53
49529;BME280;35423;37.320;-121.762;2023-08-08T09:59:28;99757.78;;;28.57;21.49
49529;BME280;35423;37.320;-121.762;2023-08-08T10:01:53;99756.19;;;28.40;21.59
49529;BME280;35423;37.320;-121.762;2023-08-08T10:04:23;99760.36;;;28.30;21.75
49529;BME280;35423;37.320;-121.762;2023-08-08T10:06:47;99760.32;;;28.15;21.87
49529;BME280;35423;37.320;-121.762;2023-08-08T10:09:15;99762.42;;;28.11;21.84
49529;BME280;35423;37.320;-121.762;2023-08-08T10:11:45;99763.99;;;27.97;22.02
49529;BME280;35423;37.320;-121.762;2023-08-08T10:14:11;99766.31;;;27.84;22.19
49529;BME280;35423;37.320;-121.762;2023-08-08T10:16:38;99765.59;;;27.96;22.23
49529;BME280;35423;37.320;-121.762;2023-08-08T10:19:04;99763.37;;;27.67;22.22
49529;BME280;35423;37.320;-121.762;2023-08-08T10:21:28;99761.97;;;27.81;22.24
49529;BME280;35423;37.320;-121.762;2023-08-08T10:24:02;99761.71;;;27.78;22.19
49529;BME280;35423;37.320;-121.762;2023-08-08T10:26:25;99760.42;;;27.72;22.20
49529;BME280;35423;37.320;-121.762;2023-08-08T10:28:55;99762.67;;;27.68;22.21
49529;BME280;35423;37.320;-121.762;2023-08-08T10:31:21;99762.63;;;27.82;22.36
49529;BME280;35423;37.320;-121.762;2023-08-08T10:33:48;99762.80;;;27.23;22.55
49529;BME280;35423;37.320;-121.762;2023-08-08T10:36:14;99760.42;;;27.66;22.57
49529;BME280;35423;37.320;-121.762;2023-08-08T10:38:42;99761.88;;;27.32;22.67
49529;BME280;35423;37.320;-121.762;2023-08-08T10:41:08;99761.78;;;27.59;22.54
49529;BME280;35423;37.320;-121.762;2023-08-08T10:43:32;99763.35;;;27.04;22.57
49529;BME280;35423;37.320;-121.762;2023-08-08T10:46:03;99766.06;;;27.58;22.49
49529;BME280;35423;37.320;-121.762;2023-08-08T10:48:27;99767.62;;;27.46;22.56
49529;BME280;35423;37.320;-121.762;2023-08-08T10:50:55;99768.41;;;27.44;22.55
49529;BME280;35423;37.320;-121.762;2023-08-08T10:53:23;99770.30;;;26.78;22.73
49529;BME280;35423;37.320;-121.762;2023-08-08T10:55:44;99771.04;;;27.29;22.72
49529;BME280;35423;37.320;-121.762;2023-08-08T10:58:13;99769.36;;;26.65;22.90
49529;BME280;35423;37.320;-121.762;2023-08-08T11:00:37;99770.19;;;27.15;22.88
49529;BME280;35423;37.320;-121.762;2023-08-08T11:03:06;99768.04;;;26.28;22.99
49529;BME280;35423;37.320;-121.762;2023-08-08T11:05:30;99766.93;;;26.99;22.99
49529;BME280;35423;37.320;-121.762;2023-08-08T11:08:06;99760.63;;;26.33;23.07
49529;BME280;35423;37.320;-121.762;2023-08-08T11:10:19;99756.40;;;27.36;23.00
49529;BME280;35423;37.320;-121.762;2023-08-08T11:12:58;99758.53;;;26.69;23.13
49529;BME280;35423;37.320;-121.762;2023-08-08T11:15:14;99755.75;;;26.94;23.12
49529;BME280;35423;37.320;-121.762;2023-08-08T11:17:47;99757.78;;;26.24;23.44
49529;BME280;35423;37.320;-121.762;2023-08-08T11:20:13;99756.62;;;26.74;23.49
49529;BME280;35423;37.320;-121.762;2023-08-08T11:22:53;99758.98;;;26.01;23.64
49529;BME280;35423;37.320;-121.762;2023-08-08T11:25:15;99763.75;;;26.29;23.65
49529;BME280;35423;37.320;-121.762;2023-08-08T11:27:39;99764.78;;;26.35;23.64
49529;BME280;35423;37.320;-121.762;2023-08-08T11:30:03;99762.49;;;26.65;23.62
49529;BME280;35423;37.320;-121.762;2023-08-08T11:32:28;99766.23;;;26.51;23.73
49529;BME280;35423;37.320;-121.762;2023-08-08T11:35:00;99766.52;;;26.45;23.76
49529;BME280;35423;37.320;-121.762;2023-08-08T11:37:26;99764.63;;;26.31;23.87
49529;BME280;35423;37.320;-121.762;2023-08-08T11:39:52;99769.25;;;26.07;23.58
49529;BME280;35423;37.320;-121.762;2023-08-08T11:42:18;99764.60;;;26.22;23.71
49529;BME280;35423;37.320;-121.762;2023-08-08T11:44:49;99765.41;;;26.35;23.77
49529;BME280;35423;37.320;-121.762;2023-08-08T11:47:14;99764.20;;;26.30;23.64
49529;BME280;35423;37.320;-121.762;2023-08-08T11:49:46;99763.16;;;26.16;23.63
49529;BME280;35423;37.320;-121.762;2023-08-08T11:52:13;99762.10;;;26.47;23.65
49529;BME280;35423;37.320;-121.762;2023-08-08T11:54:39;99758.38;;;26.10;23.76
49529;BME280;35423;37.320;-121.762;2023-08-08T11:57:05;99761.54;;;26.14;23.98
49529;BME280;35423;37.320;-121.762;2023-08-08T11:59:37;99763.36;;;26.53;24.06
49529;BME280;35423;37.320;-121.762;2023-08-08T12:02:03;99769.17;;;25.90;24.21
49529;BME280;35423;37.320;-121.762;2023-08-08T12:04:28;99774.65;;;25.89;24.27
49529;BME280;35423;37.320;-121.762;2023-08-08T12:07:01;99774.44;;;25.77;24.38
49529;BME280;35423;37.320;-121.762;2023-08-08T12:09:19;99771.33;;;25.76;24.43
49529;BME280;35423;37.320;-121.762;2023-08-08T12:11:47;99769.49;;;25.87;24.45
49529;BME280;35423;37.320;-121.762;2023-08-08T12:14:10;99768.45;;;26.01;24.51
49529;BME280;35423;37.320;-121.762;2023-08-08T12:16:38;99763.21;;;25.49;24.49
49529;BME280;35423;37.320;-121.762;2023-08-08T12:19:02;99764.62;;;25.49;24.50
49529;BME280;35423;37.320;-121.762;2023-08-08T12:21:27;99761.14;;;25.86;24.54
49529;BME280;35423;37.320;-121.762;2023-08-08T12:23:53;99763.58;;;25.58;24.62
49529;BME280;35423;37.320;-121.762;2023-08-08T12:26:19;99771.23;;;25.80;24.63
49529;BME280;35423;37.320;-121.762;2023-08-08T12:28:47;99774.00;;;25.46;24.80
49529;BME280;35423;37.320;-121.762;2023-08-08T12:31:14;99777.41;;;25.62;24.82
49529;BME280;35423;37.320;-121.762;2023-08-08T12:33:38;99779.47;;;25.08;24.99
49529;BME280;35423;37.320;-121.762;2023-08-08T12:36:05;99777.95;;;25.51;24.96
49529;BME280;35423;37.320;-121.762;2023-08-08T12:38:30;99778.85;;;25.18;25.09
49529;BME280;35423;37.320;-121.762;2023-08-08T12:40:56;99778.80;;;25.20;25.05
49529;BME280;35423;37.320;-121.762;2023-08-08T12:43:22;99778.87;;;25.09;25.15
49529;BME280;35423;37.320;-121.762;2023-08-08T12:45:50;99779.22;;;25.29;25.10
49529;BME280;35423;37.320;-121.762;2023-08-08T12:48:17;99781.55;;;24.94;25.24
49529;BME280;35423;37.320;-121.762;2023-08-08T12:50:44;99786.29;;;25.15;25.21
49529;BME280;35423;37.320;-121.762;2023-08-08T12:53:11;99791.42;;;24.58;25.34
49529;BME280;35423;37.320;-121.762;2023-08-08T12:55:39;99793.47;;;24.97;25.42
49529;BME280;35423;37.320;-121.762;2023-08-08T12:58:07;99796.81;;;24.10;25.63
49529;BME280;35423;37.320;-121.762;2023-08-08T13:00:32;99802.93;;;25.11;25.58
49529;BME280;35423;37.320;-121.762;2023-08-08T13:02:59;99804.26;;;24.24;25.68
49529;BME280;35423;37.320;-121.762;2023-08-08T13:05:27;99806.57;;;24.74;25.59
49529;BME280;35423;37.320;-121.762;2023-08-08T13:08:00;99808.90;;;24.13;25.77
49529;BME280;35423;37.320;-121.762;2023-08-08T13:10:26;99809.65;;;24.58;25.84
49529;BME280;35423;37.320;-121.762;2023-08-08T13:12:56;99809.84;;;23.96;25.98
49529;BME280;35423;37.320;-121.762;2023-08-08T13:15:22;99809.13;;;24.39;26.03
49529;BME280;35423;37.320;-121.762;2023-08-08T13:17:49;99809.61;;;24.56;26.21
49529;BME280;35423;37.320;-121.762;2023-08-08T13:20:14;99804.12;;;24.52;26.20
49529;BME280;35423;37.320;-121.762;2023-08-08T13:22:57;99803.43;;;23.60;26.33
49529;BME280;35423;37.320;-121.762;2023-08-08T13:25:23;99803.33;;;24.12;26.28
49529;BME280;35423;37.320;-121.762;2023-08-08T13:28:11;99798.02;;;23.74;26.47
49529;BME280;35423;37.320;-121.762;2023-08-08T13:30:42;99796.29;;;24.29;26.36
49529;BME280;35423;37.320;-121.762;2023-08-08T13:33:08;99800.69;;;23.48;26.40
49529;BME280;35423;37.320;-121.762;2023-08-08T13:35:36;99806.07;;;24.25;26.28
49529;BME280;35423;37.320;-121.762;2023-08-08T13:38:04;99805.23;;;23.17;26.31
49529;BME280;35423;37.320;-121.762;2023-08-08T13:40:29;99805.69;;;24.37;26.29
49529;BME280;35423;37.320;-121.762;2023-08-08T13:42:56;99812.99;;;23.33;26.37
49529;BME280;35423;37.320;-121.762;2023-08-08T13:45:22;99819.93;;;24.07;26.33
49529;BME280;35423;37.320;-121.762;2023-08-08T13:47:51;99825.62;;;23.62;26.54
49529;BME280;35423;37.320;-121.762;2023-08-08T13:50:15;99834.42;;;24.15;26.57
49529;BME280;35423;37.320;-121.762;2023-08-08T13:52:59;99831.35;;;23.56;26.67
49529;BME280;35423;37.320;-121.762;2023-08-08T13:55:19;99829.76;;;24.14;26.60
49529;BME280;35423;37.320;-121.762;2023-08-08T13:57:49;99833.15;;;24.06;26.74
49529;BME280;35423;37.320;-121.762;2023-08-08T14:00:17;99829.88;;;24.14;26.72
49529;BME280;35423;37.320;-121.762;2023-08-08T14:02:49;99833.40;;;24.05;26.77
49529;BME280;35423;37.320;-121.762;2023-08-08T14:05:14;99836.69;;;24.13;26.73
49529;BME280;35423;37.320;-121.762;2023-08-08T14:07:40;99841.91;;;23.82;26.77
49529;BME280;35423;37.320;-121.762;2023-08-08T14:10:06;99844.36;;;24.44;26.72
49529;BME280;35423;37.320;-121.762;2023-08-08T14:12:31;99845.73;;;24.08;26.97